sensor_id;sensor_type;location;lat;lon;timestamp;pressure;altitude;pressure_sealevel;temperature;humidity
24280;BME280;12395;42.808;23.408;2023-07-02T00:00:13;94287.09;;;15.97;100.00
24280;BME280;12395;42.808;23.408;2023-07-02T00:02:38;94285.03;;;16.04;100.00
24280;BME280;12395;42.808;23.408;2023-07-02T00:05:04;94283.09;;;15.95;100.00
24280;BME280;12395;42.808;23.408;2023-07-02T00:07:30;94267.22;;;15.83;100.00
24280;BME280;12395;42.808;23.408;2023-07-02T00:09:56;94273.69;;;15.87;100.00
24280;BME280;12395;42.808;23.408;2023-07-02T00:12:21;94265.44;;;15.94;100.00
24280;BME280;12395;42.808;23.408;2023-07-02T00:14:47;94266.00;;;15.96;100.00
24280;BME280;12395;42.808;23.408;2023-07-02T00:17:12;94252.31;;;15.87;100.00
24280;BME280;12395;42.808;23.408;2023-07-02T00:19:38;94253.13;;;15.88;100.00
24280;BME280;12395;42.808;23.408;2023-07-02T00:22:07;94263.63;;;15.99;100.00
24280;BME280;12395;42.808;23.408;2023-07-02T00:24:32;94268.19;;;16.04;100.00
24280;BME280;12395;42.808;23.408;2023-07-02T00:26:58;94271.66;;;16.04;100.00
24280;BME280;12395;42.808;23.408;2023-07-02T00:29:23;94272.53;;;16.10;100.00
24280;BME280;12395;42.808;23.408;2023-07-02T00:31:49;94273.38;;;16.15;100.00
24280;BME280;12395;42.808;23.408;2023-07-02T00:34:14;94281.94;;;16.17;100.00
24280;BME280;12395;42.808;23.408;2023-07-02T00:36:40;94266.09;;;16.11;100.00
24280;BME280;12395;42.808;23.408;2023-07-02T00:39:06;94282.75;;;16.23;100.00
24280;BME280;12395;42.808;23.408;2023-07-02T00:41:32;94294.03;;;16.30;100.00
24280;BME280;12395;42.808;23.408;2023-07-02T00:43:57;94284.66;;;16.28;100.00
24280;BME280;12395;42.808;23.408;2023-07-02T00:46:23;94310.41;;;16.39;100.00
24280;BME280;12395;42.808;23.408;2023-07-02T00:48:51;94318.16;;;16.40;100.00
24280;BME280;12395;42.808;23.408;2023-07-02T00:51:23;94317.41;;;16.45;100.00
24280;BME280;12395;42.808;23.408;2023-07-02T00:53:49;94313.13;;;16.44;100.00
24280;BME280;12395;42.808;23.408;2023-07-02T00:56:16;94326.78;;;16.47;100.00
24280;BME280;12395;42.808;23.408;2023-07-02T00:58:43;94326.03;;;16.52;100.00
24280;BME280;12395;42.808;23.408;2023-07-02T01:01:23;94318.22;;;16.45;100.00
24280;BME280;12395;42.808;23.408;2023-07-02T01:04:01;94310.13;;;16.35;100.00
24280;BME280;12395;42.808;23.408;2023-07-02T01:06:36;94331.53;;;16.40;100.00
24280;BME280;12395;42.808;23.408;2023-07-02T01:09:05;94330.00;;;16.49;100.00
24280;BME280;12395;42.808;23.408;2023-07-02T01:11:35;94324.38;;;16.46;100.00
24280;BME280;12395;42.808;23.408;2023-07-02T01:14:04;94324.59;;;16.39;100.00
24280;BME280;12395;42.808;23.408;2023-07-02T01:16:32;94316.53;;;16.34;100.00
24280;BME280;12395;42.808;23.408;2023-07-02T01:19:02;94312.94;;;16.18;100.00
24280;BME280;12395;42.808;23.408;2023-07-02T01:21:30;94322.31;;;16.21;100.00
24280;BME280;12395;42.808;23.408;2023-07-02T01:23:55;94303.56;;;16.16;100.00
24280;BME280;12395;42.808;23.408;2023-07-02T01:26:21;94308.91;;;16.16;100.00
24280;BME280;12395;42.808;23.408;2023-07-02T01:28:46;94305.16;;;16.17;100.00
24280;BME280;12395;42.808;23.408;2023-07-02T01:31:12;94290.16;;;16.11;100.00
24280;BME280;12395;42.808;23.408;2023-07-02T01:33:37;94303.09;;;16.24;100.00
24280;BME280;12395;42.808;23.408;2023-07-02T01:36:03;94284.88;;;16.16;100.00
24280;BME280;12395;42.808;23.408;2023-07-02T01:38:28;94301.50;;;16.28;100.00
24280;BME280;12395;42.808;23.408;2023-07-02T01:40:54;94288.91;;;16.23;100.00
24280;BME280;12395;42.808;23.408;2023-07-02T01:43:19;94287.09;;;16.29;100.00
24280;BME280;12395;42.808;23.408;2023-07-02T01:45:45;94269.72;;;16.32;100.00
24280;BME280;12395;42.808;23.408;2023-07-02T01:48:10;94271.63;;;16.36;100.00
24280;BME280;12395;42.808;23.408;2023-07-02T01:50:36;94260.38;;;16.34;100.00
24280;BME280;12395;42.808;23.408;2023-07-02T01:53:01;94278.28;;;16.29;100.00
24280;BME280;12395;42.808;23.408;2023-07-02T01:55:26;94271.81;;;16.25;100.00
24280;BME280;12395;42.808;23.408;2023-07-02T01:57:53;94258.25;;;16.31;100.00
24280;BME280;12395;42.808;23.408;2023-07-02T02:00:19;94240.56;;;16.25;100.00
24280;BME280;12395;42.808;23.408;2023-07-02T02:02:44;94236.00;;;16.26;100.00
24280;BME280;12395;42.808;23.408;2023-07-02T02:05:09;94251.50;;;16.23;100.00
24280;BME280;12395;42.808;23.408;2023-07-02T02:07:38;94249.16;;;16.32;100.00
24280;BME280;12395;42.808;23.408;2023-07-02T02:10:04;94238.44;;;16.27;100.00
24280;BME280;12395;42.808;23.408;2023-07-02T02:12:29;94231.44;;;16.21;100.00
24280;BME280;12395;42.808;23.408;2023-07-02T02:14:55;94234.94;;;16.27;100.00
24280;BME280;12395;42.808;23.408;2023-07-02T02:17:21;94238.66;;;16.26;100.00
24280;BME280;12395;42.808;23.408;2023-07-02T02:19:46;94244.78;;;16.21;100.00
24280;BME280;12395;42.808;23.408;2023-07-02T02:22:12;94216.97;;;16.17;100.00
24280;BME280;12395;42.808;23.408;2023-07-02T02:24:37;94232.78;;;16.18;100.00
24280;BME280;12395;42.808;23.408;2023-07-02T02:27:03;94252.84;;;16.26;100.00
24280;BME280;12395;42.808;23.408;2023-07-02T02:29:28;94240.81;;;16.23;100.00
24280;BME280;12395;42.808;23.408;2023-07-02T02:31:53;94245.88;;;16.20;100.00
24280;BME280;12395;42.808;23.408;2023-07-02T02:34:19;94252.25;;;16.14;100.00
24280;BME280;12395;42.808;23.408;2023-07-02T02:36:44;94230.81;;;16.09;100.00
24280;BME280;12395;42.808;23.408;2023-07-02T02:39:10;94233.53;;;16.14;100.00
24280;BME280;12395;42.808;23.408;2023-07-02T02:41:35;94229.56;;;16.16;100.00
24280;BME280;12395;42.808;23.408;2023-07-02T02:44:00;94227.13;;;16.15;100.00
24280;BME280;12395;42.808;23.408;2023-07-02T02:46:26;94221.78;;;16.15;100.00
24280;BME280;12395;42.808;23.408;2023-07-02T02:48:52;94217.47;;;16.09;100.00
24280;BME280;12395;42.808;23.408;2023-07-02T02:51:17;94211.63;;;16.12;100.00
24280;BME280;12395;42.808;23.408;2023-07-02T02:53:42;94208.41;;;16.10;100.00
24280;BME280;12395;42.808;23.408;2023-07-02T02:56:08;94226.06;;;16.16;100.00
24280;BME280;12395;42.808;23.408;2023-07-02T02:58:33;94211.09;;;16.15;100.00
24280;BME280;12395;42.808;23.408;2023-07-02T03:00:59;94234.91;;;16.21;100.00
24280;BME280;12395;42.808;23.408;2023-07-02T03:03:24;94231.44;;;16.21;100.00
24280;BME280;12395;42.808;23.408;2023-07-02T03:05:50;94258.53;;;16.35;100.00
24280;BME280;12395;42.808;23.408;2023-07-02T03:08:16;94276.50;;;16.49;100.00
24280;BME280;12395;42.808;23.408;2023-07-02T03:10:42;94271.16;;;16.49;100.00
24280;BME280;12395;42.808;23.408;2023-07-02T03:13:07;94279.53;;;16.58;100.00
24280;BME280;12395;42.808;23.408;2023-07-02T03:15:32;94271.25;;;16.54;100.00
24280;BME280;12395;42.808;23.408;2023-07-02T03:17:58;94277.19;;;16.66;100.00
24280;BME280;12395;42.808;23.408;2023-07-02T03:20:23;94270.00;;;16.72;100.00
24280;BME280;12395;42.808;23.408;2023-07-02T03:22:49;94244.53;;;16.64;100.00
24280;BME280;12395;42.808;23.408;2023-07-02T03:25:15;94265.47;;;16.77;100.00
24280;BME280;12395;42.808;23.408;2023-07-02T03:27:40;94273.50;;;16.77;100.00
24280;BME280;12395;42.808;23.408;2023-07-02T03:30:06;94282.34;;;16.83;100.00
24280;BME280;12395;42.808;23.408;2023-07-02T03:32:31;94286.94;;;16.92;100.00
24280;BME280;12395;42.808;23.408;2023-07-02T03:34:57;94299.31;;;17.04;100.00
24280;BME280;12395;42.808;23.408;2023-07-02T03:37:22;94277.84;;;16.98;100.00
24280;BME280;12395;42.808;23.408;2023-07-02T03:39:48;94270.88;;;16.92;100.00
24280;BME280;12395;42.808;23.408;2023-07-02T03:48:21;94262.56;;;16.84;100.00
24280;BME280;12395;42.808;23.408;2023-07-02T03:50:47;94269.84;;;16.93;100.00
24280;BME280;12395;42.808;23.408;2023-07-02T03:53:12;94257.78;;;16.91;100.00
24280;BME280;12395;42.808;23.408;2023-07-02T03:55:37;94247.31;;;16.84;100.00
24280;BME280;12395;42.808;23.408;2023-07-02T03:58:04;94256.19;;;16.95;100.00
24280;BME280;12395;42.808;23.408;2023-07-02T04:00:29;94262.81;;;16.87;100.00
24280;BME280;12395;42.808;23.408;2023-07-02T04:02:54;94265.84;;;17.01;100.00
24280;BME280;12395;42.808;23.408;2023-07-02T04:05:20;94259.44;;;17.02;100.00
24280;BME280;12395;42.808;23.408;2023-07-02T04:07:45;94260.03;;;17.19;100.00
24280;BME280;12395;42.808;23.408;2023-07-02T04:10:11;94255.19;;;17.26;100.00
24280;BME280;12395;42.808;23.408;2023-07-02T04:12:36;94271.09;;;17.53;100.00
24280;BME280;12395;42.808;23.408;2023-07-02T04:15:02;94279.69;;;17.65;100.00
24280;BME280;12395;42.808;23.408;2023-07-02T04:17:28;94287.22;;;17.93;100.00
24280;BME280;12395;42.808;23.408;2023-07-02T04:19:54;94289.34;;;18.11;100.00
24280;BME280;12395;42.808;23.408;2023-07-02T04:34:22;94307.59;;;18.09;100.00
24280;BME280;12395;42.808;23.408;2023-07-02T04:36:47;94296.59;;;18.01;100.00
24280;BME280;12395;42.808;23.408;2023-07-02T04:39:13;94299.00;;;18.07;100.00
24280;BME280;12395;42.808;23.408;2023-07-02T04:41:38;94300.09;;;18.16;100.00
24280;BME280;12395;42.808;23.408;2023-07-02T04:44:04;94318.34;;;18.34;100.00
24280;BME280;12395;42.808;23.408;2023-07-02T04:46:29;94307.59;;;18.34;100.00
24280;BME280;12395;42.808;23.408;2023-07-02T04:48:55;94311.34;;;18.38;100.00
24280;BME280;12395;42.808;23.408;2023-07-02T04:51:20;94328.25;;;18.59;100.00
24280;BME280;12395;42.808;23.408;2023-07-02T04:53:46;94326.38;;;18.55;100.00
24280;BME280;12395;42.808;23.408;2023-07-02T04:56:12;94323.16;;;18.53;100.00
24280;BME280;12395;42.808;23.408;2023-07-02T04:58:37;94339.78;;;18.70;100.00
24280;BME280;12395;42.808;23.408;2023-07-02T05:01:03;94337.09;;;18.75;100.00
24280;BME280;12395;42.808;23.408;2023-07-02T05:03:28;94357.44;;;19.01;100.00
24280;BME280;12395;42.808;23.408;2023-07-02T05:05:53;94333.81;;;18.98;100.00
24280;BME280;12395;42.808;23.408;2023-07-02T05:08:19;94345.84;;;19.10;100.00
24280;BME280;12395;42.808;23.408;2023-07-02T05:10:44;94342.88;;;19.17;100.00
24280;BME280;12395;42.808;23.408;2023-07-02T05:13:09;94355.22;;;19.23;100.00
24280;BME280;12395;42.808;23.408;2023-07-02T05:15:35;94357.31;;;19.31;100.00
24280;BME280;12395;42.808;23.408;2023-07-02T05:18:01;94335.34;;;19.24;100.00
24280;BME280;12395;42.808;23.408;2023-07-02T05:20:27;94366.97;;;19.47;100.00
24280;BME280;12395;42.808;23.408;2023-07-02T05:48:07;94344.56;;;18.93;100.00
24280;BME280;12395;42.808;23.408;2023-07-02T05:50:32;94354.16;;;19.24;100.00
24280;BME280;12395;42.808;23.408;2023-07-02T05:52:57;94365.63;;;19.50;100.00
24280;BME280;12395;42.808;23.408;2023-07-02T05:55:23;94355.59;;;19.65;100.00
24280;BME280;12395;42.808;23.408;2023-07-02T05:57:48;94378.03;;;19.94;100.00
24280;BME280;12395;42.808;23.408;2023-07-02T06:00:14;94361.34;;;19.97;100.00
24280;BME280;12395;42.808;23.408;2023-07-02T06:02:40;94391.88;;;20.17;100.00
24280;BME280;12395;42.808;23.408;2023-07-02T06:05:05;94366.63;;;20.13;100.00
24280;BME280;12395;42.808;23.408;2023-07-02T06:07:31;94378.94;;;20.29;100.00
24280;BME280;12395;42.808;23.408;2023-07-02T06:09:56;94372.50;;;20.20;100.00
24280;BME280;12395;42.808;23.408;2023-07-02T06:12:22;94355.84;;;20.18;100.00
24280;BME280;12395;42.808;23.408;2023-07-02T06:14:48;94344.66;;;20.44;100.00
24280;BME280;12395;42.808;23.408;2023-07-02T06:17:13;94371.91;;;20.95;97.55
24280;BME280;12395;42.808;23.408;2023-07-02T06:19:39;94361.97;;;21.19;93.79
24280;BME280;12395;42.808;23.408;2023-07-02T06:22:05;94376.56;;;21.66;92.08
24280;BME280;12395;42.808;23.408;2023-07-02T06:24:30;94374.81;;;21.75;87.61
24280;BME280;12395;42.808;23.408;2023-07-02T06:26:56;94374.41;;;21.86;88.80
24280;BME280;12395;42.808;23.408;2023-07-02T06:29:23;94375.16;;;21.92;87.50
24280;BME280;12395;42.808;23.408;2023-07-02T06:31:49;94361.75;;;21.87;88.29
24280;BME280;12395;42.808;23.408;2023-07-02T06:34:14;94357.88;;;21.93;88.24
24280;BME280;12395;42.808;23.408;2023-07-02T06:36:40;94370.91;;;21.86;89.58
24280;BME280;12395;42.808;23.408;2023-07-02T06:39:09;94373.16;;;21.79;89.60
24280;BME280;12395;42.808;23.408;2023-07-02T06:41:38;94369.84;;;21.39;90.20
24280;BME280;12395;42.808;23.408;2023-07-02T06:44:03;94358.88;;;21.07;92.29
24280;BME280;12395;42.808;23.408;2023-07-02T06:46:30;94350.28;;;21.05;93.08
24280;BME280;12395;42.808;23.408;2023-07-02T06:48:55;94368.53;;;21.37;91.73
24280;BME280;12395;42.808;23.408;2023-07-02T06:51:21;94361.19;;;21.42;91.88
24280;BME280;12395;42.808;23.408;2023-07-02T06:53:46;94338.81;;;21.42;90.87
24280;BME280;12395;42.808;23.408;2023-07-02T06:56:12;94359.34;;;21.62;91.47
24280;BME280;12395;42.808;23.408;2023-07-02T06:58:41;94366.28;;;21.68;90.98
24280;BME280;12395;42.808;23.408;2023-07-02T07:01:07;94360.44;;;21.79;90.29
24280;BME280;12395;42.808;23.408;2023-07-02T07:03:33;94360.56;;;21.93;88.93
24280;BME280;12395;42.808;23.408;2023-07-02T07:05:58;94344.38;;;21.93;87.20
24280;BME280;12395;42.808;23.408;2023-07-02T07:08:23;94358.38;;;21.95;86.43
24280;BME280;12395;42.808;23.408;2023-07-02T07:10:49;94373.34;;;22.06;85.93
24280;BME280;12395;42.808;23.408;2023-07-02T07:13:15;94349.66;;;21.79;86.87
24280;BME280;12395;42.808;23.408;2023-07-02T07:15:41;94363.34;;;21.88;88.23
24280;BME280;12395;42.808;23.408;2023-07-02T07:18:08;94357.53;;;21.76;88.79
24280;BME280;12395;42.808;23.408;2023-07-02T07:20:34;94354.22;;;21.84;91.06
24280;BME280;12395;42.808;23.408;2023-07-02T07:22:59;94344.97;;;21.90;89.81
24280;BME280;12395;42.808;23.408;2023-07-02T07:25:24;94342.56;;;21.88;89.66
24280;BME280;12395;42.808;23.408;2023-07-02T07:27:52;94317.09;;;21.76;91.44
24280;BME280;12395;42.808;23.408;2023-07-02T07:30:17;94341.69;;;21.93;87.41
24280;BME280;12395;42.808;23.408;2023-07-02T07:32:48;94343.31;;;21.94;86.77
24280;BME280;12395;42.808;23.408;2023-07-02T07:35:14;94325.22;;;21.94;89.15
24280;BME280;12395;42.808;23.408;2023-07-02T07:37:39;94334.09;;;22.32;88.27
24280;BME280;12395;42.808;23.408;2023-07-02T07:40:05;94349.25;;;22.47;85.02
24280;BME280;12395;42.808;23.408;2023-07-02T07:42:31;94361.28;;;22.54;86.95
24280;BME280;12395;42.808;23.408;2023-07-02T07:44:56;94334.78;;;22.56;84.75
24280;BME280;12395;42.808;23.408;2023-07-02T07:47:22;94352.13;;;22.87;84.39
24280;BME280;12395;42.808;23.408;2023-07-02T07:49:47;94366.28;;;23.25;84.01
24280;BME280;12395;42.808;23.408;2023-07-02T07:52:12;94351.63;;;23.45;81.91
24280;BME280;12395;42.808;23.408;2023-07-02T07:54:38;94336.25;;;23.81;81.61
24280;BME280;12395;42.808;23.408;2023-07-02T07:57:04;94355.59;;;24.37;78.80
24280;BME280;12395;42.808;23.408;2023-07-02T07:59:30;94336.66;;;24.60;74.55
24280;BME280;12395;42.808;23.408;2023-07-02T08:01:55;94349.19;;;24.91;73.84
24280;BME280;12395;42.808;23.408;2023-07-02T08:04:20;94358.69;;;25.11;73.60
24280;BME280;12395;42.808;23.408;2023-07-02T08:06:46;94364.72;;;25.39;73.58
24280;BME280;12395;42.808;23.408;2023-07-02T08:09:11;94364.38;;;25.62;70.60
24280;BME280;12395;42.808;23.408;2023-07-02T08:11:37;94364.16;;;25.89;69.27
24280;BME280;12395;42.808;23.408;2023-07-02T08:14:02;94361.47;;;25.98;68.00
24280;BME280;12395;42.808;23.408;2023-07-02T08:16:27;94370.78;;;26.31;67.84
24280;BME280;12395;42.808;23.408;2023-07-02T08:18:53;94365.22;;;26.36;65.76
24280;BME280;12395;42.808;23.408;2023-07-02T08:21:19;94361.22;;;26.34;66.24
24280;BME280;12395;42.808;23.408;2023-07-02T08:23:44;94345.72;;;26.26;66.11
24280;BME280;12395;42.808;23.408;2023-07-02T08:26:10;94361.69;;;26.36;68.38
24280;BME280;12395;42.808;23.408;2023-07-02T08:28:39;94379.94;;;26.78;69.17
24280;BME280;12395;42.808;23.408;2023-07-02T08:31:05;94364.56;;;26.99;65.89
24280;BME280;12395;42.808;23.408;2023-07-02T08:33:31;94362.44;;;27.22;64.76
24280;BME280;12395;42.808;23.408;2023-07-02T08:35:56;94346.81;;;27.02;63.80
24280;BME280;12395;42.808;23.408;2023-07-02T08:38:23;94355.41;;;27.12;63.85
24280;BME280;12395;42.808;23.408;2023-07-02T08:40:51;94353.19;;;27.06;62.89
24280;BME280;12395;42.808;23.408;2023-07-02T08:43:18;94354.13;;;27.10;61.87
24280;BME280;12395;42.808;23.408;2023-07-02T08:45:43;94370.63;;;27.13;59.23
24280;BME280;12395;42.808;23.408;2023-07-02T08:48:13;94362.44;;;27.22;60.93
24280;BME280;12395;42.808;23.408;2023-07-02T08:50:38;94358.72;;;27.43;60.48
24280;BME280;12395;42.808;23.408;2023-07-02T08:53:04;94367.34;;;27.54;57.93
24280;BME280;12395;42.808;23.408;2023-07-02T08:55:29;94358.66;;;27.61;58.77
24280;BME280;12395;42.808;23.408;2023-07-02T08:57:56;94368.72;;;27.69;61.41
24280;BME280;12395;42.808;23.408;2023-07-02T09:00:25;94357.53;;;27.62;58.71
24280;BME280;12395;42.808;23.408;2023-07-02T09:02:52;94337.94;;;27.30;59.89
24280;BME280;12395;42.808;23.408;2023-07-02T09:05:17;94358.09;;;27.29;56.71
24280;BME280;12395;42.808;23.408;2023-07-02T09:07:48;94364.72;;;27.03;58.55
24280;BME280;12395;42.808;23.408;2023-07-02T09:10:30;94359.84;;;26.06;60.92
24280;BME280;12395;42.808;23.408;2023-07-02T09:13:08;94354.25;;;25.93;63.35
24280;BME280;12395;42.808;23.408;2023-07-02T09:15:36;94355.91;;;26.12;64.76
24280;BME280;12395;42.808;23.408;2023-07-02T09:18:01;94354.09;;;26.07;64.64
24280;BME280;12395;42.808;23.408;2023-07-02T09:20:33;94335.44;;;26.06;62.86
24280;BME280;12395;42.808;23.408;2023-07-02T09:22:59;94330.19;;;26.09;62.46
24280;BME280;12395;42.808;23.408;2023-07-02T09:25:38;94352.34;;;26.02;63.25
24280;BME280;12395;42.808;23.408;2023-07-02T09:28:23;94340.38;;;26.03;64.51
24280;BME280;12395;42.808;23.408;2023-07-02T09:30:58;94314.91;;;25.65;63.70
24280;BME280;12395;42.808;23.408;2023-07-02T09:33:28;94338.03;;;25.63;64.46
24280;BME280;12395;42.808;23.408;2023-07-02T09:35:54;94337.00;;;25.42;65.99
24280;BME280;12395;42.808;23.408;2023-07-02T09:38:20;94328.00;;;25.63;66.22
24280;BME280;12395;42.808;23.408;2023-07-02T09:40:47;94330.94;;;25.92;63.99
24280;BME280;12395;42.808;23.408;2023-07-02T09:43:15;94328.28;;;26.10;63.53
24280;BME280;12395;42.808;23.408;2023-07-02T09:45:46;94339.34;;;26.47;64.70
24280;BME280;12395;42.808;23.408;2023-07-02T09:48:16;94332.13;;;26.34;62.52
24280;BME280;12395;42.808;23.408;2023-07-02T09:50:43;94338.34;;;26.35;60.81
24280;BME280;12395;42.808;23.408;2023-07-02T09:53:09;94337.72;;;26.21;62.98
24280;BME280;12395;42.808;23.408;2023-07-02T09:55:35;94324.75;;;26.18;62.26
24280;BME280;12395;42.808;23.408;2023-07-02T09:58:00;94331.47;;;26.12;62.82
24280;BME280;12395;42.808;23.408;2023-07-02T10:00:26;94330.13;;;26.00;62.60
24280;BME280;12395;42.808;23.408;2023-07-02T10:02:52;94334.78;;;25.91;58.36
24280;BME280;12395;42.808;23.408;2023-07-02T10:05:31;94328.22;;;25.92;57.39
24280;BME280;12395;42.808;23.408;2023-07-02T10:07:58;94326.94;;;26.07;60.91
24280;BME280;12395;42.808;23.408;2023-07-02T10:10:28;94323.13;;;25.99;63.44
24280;BME280;12395;42.808;23.408;2023-07-02T10:12:55;94321.97;;;25.83;61.87
24280;BME280;12395;42.808;23.408;2023-07-02T10:15:28;94324.22;;;25.90;59.95
24280;BME280;12395;42.808;23.408;2023-07-02T10:17:58;94303.94;;;25.87;58.78
24280;BME280;12395;42.808;23.408;2023-07-02T10:20:38;94312.38;;;25.86;60.28
24280;BME280;12395;42.808;23.408;2023-07-02T10:23:05;94306.69;;;25.96;60.48
24280;BME280;12395;42.808;23.408;2023-07-02T10:25:36;94305.13;;;26.21;60.71
24280;BME280;12395;42.808;23.408;2023-07-02T10:28:18;94304.78;;;26.48;58.62
24280;BME280;12395;42.808;23.408;2023-07-02T10:30:48;94296.50;;;26.53;60.58
24280;BME280;12395;42.808;23.408;2023-07-02T10:33:15;94292.31;;;26.64;59.70
24280;BME280;12395;42.808;23.408;2023-07-02T10:35:42;94296.16;;;26.54;58.13
24280;BME280;12395;42.808;23.408;2023-07-02T10:38:29;94306.41;;;26.49;58.34
24280;BME280;12395;42.808;23.408;2023-07-02T10:40:59;94291.69;;;26.33;59.03
24280;BME280;12395;42.808;23.408;2023-07-02T10:43:29;94308.94;;;26.54;57.83
24280;BME280;12395;42.808;23.408;2023-07-02T10:45:55;94306.06;;;26.76;56.63
24280;BME280;12395;42.808;23.408;2023-07-02T10:48:20;94300.75;;;26.88;56.15
24280;BME280;12395;42.808;23.408;2023-07-02T10:50:46;94304.13;;;26.94;54.98
24280;BME280;12395;42.808;23.408;2023-07-02T10:53:16;94286.97;;;27.02;60.59
24280;BME280;12395;42.808;23.408;2023-07-02T10:55:42;94294.53;;;27.42;57.21
24280;BME280;12395;42.808;23.408;2023-07-02T10:58:09;94298.53;;;27.74;55.12
24280;BME280;12395;42.808;23.408;2023-07-02T11:00:47;94283.75;;;27.84;53.16
24280;BME280;12395;42.808;23.408;2023-07-02T11:03:20;94295.13;;;27.86;51.20
24280;BME280;12395;42.808;23.408;2023-07-02T11:05:47;94290.41;;;27.95;52.12
24280;BME280;12395;42.808;23.408;2023-07-02T11:08:13;94283.88;;;27.87;52.79
24280;BME280;12395;42.808;23.408;2023-07-02T11:10:39;94269.66;;;27.52;53.24
24280;BME280;12395;42.808;23.408;2023-07-02T11:15:38;94273.53;;;27.52;57.21
24280;BME280;12395;42.808;23.408;2023-07-02T11:18:10;94293.59;;;27.38;55.93
24280;BME280;12395;42.808;23.408;2023-07-02T11:20:36;94283.66;;;26.96;55.88
24280;BME280;12395;42.808;23.408;2023-07-02T11:23:01;94283.78;;;27.00;56.68
24280;BME280;12395;42.808;23.408;2023-07-02T11:25:26;94283.78;;;27.00;58.67
24280;BME280;12395;42.808;23.408;2023-07-02T11:28:04;94285.75;;;26.82;60.63
24280;BME280;12395;42.808;23.408;2023-07-02T11:30:30;94273.94;;;26.61;60.91
24280;BME280;12395;42.808;23.408;2023-07-02T11:32:56;94276.53;;;26.40;60.41
24280;BME280;12395;42.808;23.408;2023-07-02T11:35:22;94276.50;;;26.57;61.19
24280;BME280;12395;42.808;23.408;2023-07-02T11:37:58;94291.03;;;26.70;60.01
24280;BME280;12395;42.808;23.408;2023-07-02T11:40:25;94303.50;;;26.54;60.81
24280;BME280;12395;42.808;23.408;2023-07-02T11:42:52;94311.50;;;26.25;61.29
24280;BME280;12395;42.808;23.408;2023-07-02T11:45:17;94286.25;;;26.24;60.47
24280;BME280;12395;42.808;23.408;2023-07-02T11:47:43;94281.63;;;26.42;61.13
24280;BME280;12395;42.808;23.408;2023-07-02T11:50:08;94269.47;;;26.56;59.94
24280;BME280;12395;42.808;23.408;2023-07-02T11:52:34;94274.88;;;26.65;57.68
24280;BME280;12395;42.808;23.408;2023-07-02T11:54:59;94285.91;;;26.86;58.65
24280;BME280;12395;42.808;23.408;2023-07-02T11:57:25;94278.41;;;26.74;57.66
24280;BME280;12395;42.808;23.408;2023-07-02T11:59:50;94280.34;;;26.39;57.78
24280;BME280;12395;42.808;23.408;2023-07-02T12:02:17;94276.88;;;26.22;59.43
24280;BME280;12395;42.808;23.408;2023-07-02T12:04:43;94273.34;;;26.21;59.54
24280;BME280;12395;42.808;23.408;2023-07-02T12:07:08;94267.44;;;26.11;59.74
24280;BME280;12395;42.808;23.408;2023-07-02T12:09:34;94274.88;;;26.05;61.84
24280;BME280;12395;42.808;23.408;2023-07-02T12:11:59;94287.53;;;26.18;58.35
24280;BME280;12395;42.808;23.408;2023-07-02T12:14:24;94289.75;;;26.08;56.67
24280;BME280;12395;42.808;23.408;2023-07-02T12:16:50;94291.97;;;26.06;56.01
24280;BME280;12395;42.808;23.408;2023-07-02T12:19:15;94305.19;;;25.81;55.33
24280;BME280;12395;42.808;23.408;2023-07-02T12:21:41;94306.25;;;25.46;54.09
24280;BME280;12395;42.808;23.408;2023-07-02T12:24:06;94298.91;;;25.16;56.63
24280;BME280;12395;42.808;23.408;2023-07-02T12:26:37;94302.06;;;24.79;57.04
24280;BME280;12395;42.808;23.408;2023-07-02T12:29:04;94299.78;;;24.50;62.53
24280;BME280;12395;42.808;23.408;2023-07-02T12:31:30;94299.53;;;24.60;60.51
24280;BME280;12395;42.808;23.408;2023-07-02T12:33:55;94290.59;;;24.60;63.91
24280;BME280;12395;42.808;23.408;2023-07-02T12:36:21;94298.66;;;24.51;65.46
24280;BME280;12395;42.808;23.408;2023-07-02T12:38:46;94292.38;;;24.64;67.79
24280;BME280;12395;42.808;23.408;2023-07-02T12:41:12;94292.22;;;24.83;66.07
24280;BME280;12395;42.808;23.408;2023-07-02T12:43:37;94290.03;;;25.33;68.09
24280;BME280;12395;42.808;23.408;2023-07-02T12:46:02;94285.41;;;25.33;63.87
24280;BME280;12395;42.808;23.408;2023-07-02T12:48:28;94288.63;;;25.35;59.76
24280;BME280;12395;42.808;23.408;2023-07-02T12:50:57;94307.59;;;25.35;62.60
24280;BME280;12395;42.808;23.408;2023-07-02T12:53:23;94286.63;;;25.58;62.22
24280;BME280;12395;42.808;23.408;2023-07-02T12:55:49;94283.78;;;25.71;60.80
24280;BME280;12395;42.808;23.408;2023-07-02T12:58:15;94296.78;;;26.00;62.01
24280;BME280;12395;42.808;23.408;2023-07-02T13:00:40;94273.81;;;26.15;64.15
24280;BME280;12395;42.808;23.408;2023-07-02T13:03:10;94282.09;;;26.61;63.56
24280;BME280;12395;42.808;23.408;2023-07-02T13:05:36;94281.75;;;26.80;60.07
24280;BME280;12395;42.808;23.408;2023-07-02T13:08:02;94272.00;;;26.79;58.02
24280;BME280;12395;42.808;23.408;2023-07-02T13:10:29;94286.53;;;26.91;56.20
24280;BME280;12395;42.808;23.408;2023-07-02T13:12:55;94281.25;;;26.86;56.69
24280;BME280;12395;42.808;23.408;2023-07-02T13:15:21;94272.47;;;26.89;56.76
24280;BME280;12395;42.808;23.408;2023-07-02T13:17:46;94259.69;;;26.81;54.85
24280;BME280;12395;42.808;23.408;2023-07-02T13:20:12;94271.00;;;27.00;56.68
24280;BME280;12395;42.808;23.408;2023-07-02T13:22:38;94250.06;;;27.01;55.26
24280;BME280;12395;42.808;23.408;2023-07-02T13:25:04;94255.28;;;27.06;56.55
24280;BME280;12395;42.808;23.408;2023-07-02T13:27:29;94243.47;;;27.02;57.23